Time;durP1;ratioP1;P1;durP2;ratioP2;P2;SDS_P1;SDS_P2;PMS_P1;PMS_P2;Temp;Humidity;BMP_temperature;BMP_pressure;BME280_temperature;BME280_humidity;BME280_pressure;Samples;Min_cycle;Max_cycle;Signal;HPM_P1;HPM_P2
2022/08/21 00:00:52;;;;;;;3.80;1.73;;;;;;;;;;5018638;28;20560;-70
2022/08/21 00:03:19;;;;;;;3.60;1.70;;;;;;;;;;5020839;28;20546;-70
2022/08/21 00:05:46;;;;;;;3.75;2.10;;;;;;;;;;5021931;28;20218;-70
2022/08/21 00:08:14;;;;;;;2.83;2.03;;;;;;;;;;5022003;28;20532;-70
2022/08/21 00:10:41;;;;;;;4.00;1.98;;;;;;;;;;5022258;28;20199;-70
2022/08/21 00:13:07;;;;;;;2.70;1.70;;;;;;;;;;5021840;28;20202;-70
2022/08/21 00:15:35;;;;;;;4.47;1.52;;;;;;;;;;5021991;28;20224;-70
2022/08/21 00:18:01;;;;;;;5.55;2.00;;;;;;;;;;5021643;28;20490;-70
2022/08/21 00:20:27;;;;;;;1.83;1.73;;;;;;;;;;5022046;28;20206;-70
2022/08/21 00:22:54;;;;;;;4.43;1.85;;;;;;;;;;5021809;28;20222;-70
2022/08/21 00:25:21;;;;;;;1.73;1.60;;;;;;;;;;5021843;28;20529;-70
2022/08/21 00:27:48;;;;;;;2.17;1.85;;;;;;;;;;5021573;28;20498;-70
2022/08/21 00:30:15;;;;;;;2.53;1.70;;;;;;;;;;5021742;28;20435;-70
2022/08/21 00:32:42;;;;;;;4.18;1.90;;;;;;;;;;5021777;28;20499;-70
2022/08/21 00:35:11;;;;;;;2.50;2.15;;;;;;;;;;5021824;28;20198;-70
2022/08/21 00:37:37;;;;;;;2.50;1.70;;;;;;;;;;5021279;28;20203;-70
2022/08/21 00:40:04;;;;;;;3.45;1.98;;;;;;;;;;5021481;28;20201;-70
2022/08/21 00:42:31;;;;;;;1.90;1.80;;;;;;;;;;5021286;28;20525;-70
2022/08/21 00:44:58;;;;;;;1.80;1.70;;;;;;;;;;5021720;28;20221;-70
2022/08/21 00:47:25;;;;;;;5.97;1.60;;;;;;;;;;5021200;28;20223;-70
2022/08/21 00:49:51;;;;;;;1.60;1.50;;;;;;;;;;5021598;28;20498;-70
2022/08/21 00:52:20;;;;;;;2.25;2.05;;;;;;;;;;5021466;28;20198;-70
2022/08/21 00:54:47;;;;;;;4.32;2.10;;;;;;;;;;5021206;28;20206;-70
2022/08/21 00:57:15;;;;;;;2.55;1.83;;;;;;;;;;5021220;28;20214;-70
2022/08/21 00:59:44;;;;;;;9.35;2.13;;;;;;;;;;5021362;28;20432;-70
2022/08/21 01:02:11;;;;;;;2.10;1.90;;;;;;;;;;5021346;28;20202;-70
2022/08/21 01:04:37;;;;;;;2.58;1.88;;;;;;;;;;5021052;28;20226;-70
2022/08/21 01:07:04;;;;;;;5.00;1.63;;;;;;;;;;5020952;28;20202;-70
2022/08/21 01:09:30;;;;;;;2.28;1.83;;;;;;;;;;5020885;28;20240;-70
2022/08/21 01:11:56;;;;;;;3.50;2.17;;;;;;;;;;5021196;28;20206;-70
2022/08/21 01:14:23;;;;;;;6.07;2.28;;;;;;;;;;5019993;28;20195;-70
2022/08/21 01:16:52;;;;;;;6.97;1.70;;;;;;;;;;5020841;28;20203;-70
2022/08/21 01:19:19;;;;;;;2.00;1.90;;;;;;;;;;5020949;28;20205;-70
2022/08/21 01:21:47;;;;;;;2.97;1.85;;;;;;;;;;5020734;28;20199;-70
2022/08/21 01:24:13;;;;;;;2.72;1.80;;;;;;;;;;5020691;28;20268;-70
2022/08/21 01:26:41;;;;;;;3.08;2.00;;;;;;;;;;5020788;28;20206;-70
2022/08/21 01:29:10;;;;;;;6.82;2.20;;;;;;;;;;5020975;28;20198;-70
2022/08/21 01:31:36;;;;;;;3.90;2.10;;;;;;;;;;5020635;28;20206;-70
2022/08/21 01:34:03;;;;;;;4.50;2.10;;;;;;;;;;5020828;28;20216;-70
2022/08/21 01:36:29;;;;;;;4.13;1.85;;;;;;;;;;5020487;28;20273;-70
2022/08/21 01:38:57;;;;;;;2.67;1.95;;;;;;;;;;5020790;28;20212;-70
2022/08/21 01:41:23;;;;;;;2.72;2.08;;;;;;;;;;5020786;28;20240;-70
2022/08/21 01:43:50;;;;;;;2.58;1.85;;;;;;;;;;5020086;28;20375;-70
2022/08/21 01:46:16;;;;;;;4.72;2.00;;;;;;;;;;5020855;28;20498;-70
2022/08/21 01:48:43;;;;;;;2.05;1.95;;;;;;;;;;5020839;28;20364;-70
2022/08/21 01:51:09;;;;;;;3.92;1.70;;;;;;;;;;5020644;28;20199;-70
2022/08/21 01:53:36;;;;;;;2.75;2.05;;;;;;;;;;5020405;28;20506;-70
2022/08/21 01:56:05;;;;;;;5.03;2.00;;;;;;;;;;5020323;28;20237;-70
2022/08/21 01:58:31;;;;;;;2.45;2.08;;;;;;;;;;5020204;28;20199;-70
2022/08/21 02:00:57;;;;;;;2.22;2.03;;;;;;;;;;5020420;28;20207;-70
2022/08/21 02:03:23;;;;;;;4.28;2.03;;;;;;;;;;5020463;28;20223;-70
2022/08/21 02:05:50;;;;;;;2.25;1.77;;;;;;;;;;5020318;28;20218;-70
2022/08/21 02:08:16;;;;;;;4.50;2.17;;;;;;;;;;5020025;28;20203;-70
2022/08/21 02:10:42;;;;;;;2.28;2.00;;;;;;;;;;5020121;28;20507;-70
2022/08/21 02:13:10;;;;;;;2.63;2.10;;;;;;;;;;5019984;28;20502;-70
2022/08/21 02:15:36;;;;;;;2.55;1.85;;;;;;;;;;5020232;28;20198;-70
2022/08/21 02:18:02;;;;;;;8.48;2.08;;;;;;;;;;5019949;28;20205;-70
2022/08/21 02:20:31;;;;;;;4.47;2.03;;;;;;;;;;5020214;28;20202;-70
2022/08/21 02:22:57;;;;;;;8.18;2.05;;;;;;;;;;5020041;28;20240;-70
2022/08/21 02:25:24;;;;;;;4.20;2.00;;;;;;;;;;5019429;28;20255;-70
2022/08/21 02:27:51;;;;;;;1.95;1.63;;;;;;;;;;5019557;28;20198;-70
2022/08/21 02:30:20;;;;;;;2.33;2.13;;;;;;;;;;5020137;28;20199;-70
2022/08/21 02:32:46;;;;;;;3.55;2.13;;;;;;;;;;5020097;28;20198;-70
2022/08/21 02:35:12;;;;;;;2.55;1.85;;;;;;;;;;5019841;28;20221;-70
2022/08/21 02:37:46;;;;;;;2.20;2.00;;;;;;;;;;5019775;28;20432;-70
2022/08/21 02:40:14;;;;;;;2.20;2.10;;;;;;;;;;5019609;28;20221;-70
2022/08/21 02:42:40;;;;;;;6.53;2.22;;;;;;;;;;5019700;28;20201;-70
2022/08/21 02:45:07;;;;;;;7.25;2.35;;;;;;;;;;5019731;28;20218;-70
2022/08/21 02:47:35;;;;;;;2.03;1.92;;;;;;;;;;5019386;28;20214;-70
2022/08/21 02:50:01;;;;;;;3.08;2.25;;;;;;;;;;5019691;28;20202;-70
2022/08/21 02:52:27;;;;;;;2.60;2.40;;;;;;;;;;5019583;28;20195;-70
2022/08/21 02:54:53;;;;;;;2.45;2.17;;;;;;;;;;5019379;28;20202;-70
2022/08/21 02:57:20;;;;;;;5.32;2.42;;;;;;;;;;5019323;28;20232;-70
2022/08/21 02:59:46;;;;;;;5.93;2.22;;;;;;;;;;5019747;28;20203;-70
2022/08/21 03:02:13;;;;;;;2.08;1.98;;;;;;;;;;5019420;28;20205;-70
2022/08/21 03:04:41;;;;;;;2.42;2.00;;;;;;;;;;5019211;28;20231;-70
2022/08/21 03:07:07;;;;;;;3.80;2.28;;;;;;;;;;5019092;28;20251;-70
2022/08/21 03:09:34;;;;;;;2.30;2.10;;;;;;;;;;5019548;28;20383;-70
2022/08/21 03:12:00;;;;;;;5.25;2.08;;;;;;;;;;5019612;28;20426;-70
2022/08/21 03:14:26;;;;;;;4.72;2.20;;;;;;;;;;5019517;28;20255;-70
2022/08/21 03:16:52;;;;;;;4.13;2.15;;;;;;;;;;5019266;28;20205;-70
2022/08/21 03:19:19;;;;;;;2.63;2.53;;;;;;;;;;5019307;28;20202;-70
2022/08/21 03:21:46;;;;;;;4.35;2.92;;;;;;;;;;5019257;28;20198;-70
2022/08/21 03:24:13;;;;;;;2.17;1.90;;;;;;;;;;5019292;28;20588;-70
2022/08/21 03:26:39;;;;;;;2.28;2.13;;;;;;;;;;5018945;28;20221;-70
2022/08/21 03:29:07;;;;;;;6.03;2.30;;;;;;;;;;5019218;28;20431;-70
2022/08/21 03:31:33;;;;;;;4.10;2.15;;;;;;;;;;5019089;28;20206;-70
2022/08/21 03:33:59;;;;;;;4.10;2.55;;;;;;;;;;5019035;28;20194;-70
2022/08/21 03:36:26;;;;;;;3.83;2.40;;;;;;;;;;5018747;28;20259;-70
2022/08/21 03:38:53;;;;;;;3.53;2.60;;;;;;;;;;5022459;28;20378;-70
2022/08/21 03:41:20;;;;;;;2.88;2.50;;;;;;;;;;5022601;28;20205;-70
2022/08/21 03:43:46;;;;;;;3.08;2.25;;;;;;;;;;5022499;28;20218;-70
2022/08/21 03:46:13;;;;;;;2.78;2.25;;;;;;;;;;5022325;28;20198;-70
2022/08/21 03:48:39;;;;;;;3.15;2.40;;;;;;;;;;5022246;28;20206;-70
2022/08/21 03:51:06;;;;;;;3.20;1.98;;;;;;;;;;5022288;28;20202;-70
2022/08/21 03:53:33;;;;;;;6.40;2.05;;;;;;;;;;5022493;28;20241;-70
2022/08/21 03:56:01;;;;;;;2.30;1.98;;;;;;;;;;5021955;28;20201;-70
2022/08/21 03:58:28;;;;;;;2.40;2.28;;;;;;;;;;5022416;28;20416;-70
2022/08/21 04:00:56;;;;;;;4.40;2.28;;;;;;;;;;5022276;28;20198;-70
2022/08/21 04:03:22;;;;;;;3.85;2.35;;;;;;;;;;5021879;28;20198;-70
2022/08/21 04:05:49;;;;;;;4.13;2.53;;;;;;;;;;5022162;28;20230;-70
2022/08/21 04:08:17;;;;;;;3.40;2.33;;;;;;;;;;5021980;28;20206;-70
2022/08/21 04:10:44;;;;;;;2.53;2.40;;;;;;;;;;5021937;28;20398;-70
2022/08/21 04:13:11;;;;;;;2.38;2.25;;;;;;;;;;5022158;28;20203;-70
2022/08/21 04:15:38;;;;;;;1.80;1.70;;;;;;;;;;5021931;28;20195;-70
2022/08/21 04:18:05;;;;;;;3.17;1.92;;;;;;;;;;5021579;28;20424;-70
2022/08/21 04:20:31;;;;;;;4.75;2.00;;;;;;;;;;5022112;28;20206;-70
2022/08/21 04:22:58;;;;;;;3.17;2.10;;;;;;;;;;5021934;28;20240;-70
2022/08/21 04:25:25;;;;;;;3.65;2.08;;;;;;;;;;5021733;28;20244;-70
2022/08/21 04:27:51;;;;;;;2.42;2.22;;;;;;;;;;5021576;28;20371;-70
2022/08/21 04:30:19;;;;;;;2.45;1.98;;;;;;;;;;5021605;28;20198;-70
2022/08/21 04:32:46;;;;;;;2.08;1.98;;;;;;;;;;5021551;28;20243;-70
2022/08/21 04:35:13;;;;;;;2.15;1.90;;;;;;;;;;5021683;28;20217;-70
2022/08/21 04:37:39;;;;;;;7.85;2.10;;;;;;;;;;5021351;28;20198;-70
2022/08/21 04:40:06;;;;;;;2.60;1.83;;;;;;;;;;5021654;28;20198;-70
2022/08/21 04:42:33;;;;;;;3.58;2.25;;;;;;;;;;5021588;28;20199;-70
2022/08/21 04:45:00;;;;;;;2.30;1.80;;;;;;;;;;5021274;28;20248;-70
2022/08/21 04:47:27;;;;;;;2.17;2.08;;;;;;;;;;5021038;28;20441;-70
2022/08/21 04:49:54;;;;;;;3.80;2.17;;;;;;;;;;5021370;28;20390;-70
2022/08/21 04:52:22;;;;;;;4.03;2.00;;;;;;;;;;5021592;28;20198;-70
2022/08/21 04:54:49;;;;;;;2.15;2.00;;;;;;;;;;5021264;28;20248;-70
2022/08/21 04:57:16;;;;;;;2.22;2.08;;;;;;;;;;5021183;28;20199;-70
2022/08/21 04:59:43;;;;;;;2.08;2.08;;;;;;;;;;5021269;28;20202;-70
2022/08/21 05:02:10;;;;;;;3.78;1.92;;;;;;;;;;5021519;28;20190;-70
2022/08/21 05:04:39;;;;;;;4.50;2.55;;;;;;;;;;5021225;28;20260;-70
2022/08/21 05:07:08;;;;;;;2.22;2.13;;;;;;;;;;5021084;28;20202;-70
2022/08/21 05:09:35;;;;;;;3.90;2.40;;;;;;;;;;5021146;28;20439;-70
2022/08/21 05:12:02;;;;;;;3.47;2.40;;;;;;;;;;5021188;28;20198;-70
2022/08/21 05:14:28;;;;;;;2.00;2.00;;;;;;;;;;5020688;28;20447;-70
2022/08/21 05:16:54;;;;;;;2.95;1.92;;;;;;;;;;5020959;28;20499;-70
2022/08/21 05:19:20;;;;;;;5.40;2.55;;;;;;;;;;5021205;28;20566;-70
2022/08/21 05:21:48;;;;;;;4.63;2.50;;;;;;;;;;5021020;28;20198;-70
2022/08/21 05:24:14;;;;;;;2.58;2.38;;;;;;;;;;5021007;28;20445;-70
2022/08/21 05:26:40;;;;;;;3.22;2.50;;;;;;;;;;5020690;28;20260;-70
2022/08/21 05:29:07;;;;;;;4.28;2.15;;;;;;;;;;5020767;28;20200;-70
2022/08/21 05:31:33;;;;;;;3.10;2.50;;;;;;;;;;5020941;28;20244;-70
2022/08/21 05:33:59;;;;;;;2.60;2.40;;;;;;;;;;5020747;28;20240;-70
2022/08/21 05:36:25;;;;;;;3.10;2.53;;;;;;;;;;5020480;28;20199;-70
2022/08/21 05:38:53;;;;;;;3.92;2.80;;;;;;;;;;5020632;28;20198;-70
2022/08/21 05:41:20;;;;;;;3.80;2.80;;;;;;;;;;5020386;28;20223;-70
2022/08/21 05:43:46;;;;;;;3.03;2.83;;;;;;;;;;5020739;28;20311;-70
2022/08/21 05:46:12;;;;;;;2.67;2.47;;;;;;;;;;5020507;28;20198;-70
2022/08/21 05:48:38;;;;;;;3.35;2.70;;;;;;;;;;5020641;28;20331;-70
2022/08/21 05:51:06;;;;;;;3.05;2.85;;;;;;;;;;5020451;28;20243;-70
2022/08/21 05:53:32;;;;;;;3.35;3.08;;;;;;;;;;5020664;28;20244;-71
2022/08/21 05:56:00;;;;;;;5.75;3.20;;;;;;;;;;5020391;28;20202;-70
2022/08/21 05:58:26;;;;;;;2.78;2.67;;;;;;;;;;5020583;28;20199;-70
2022/08/21 06:00:53;;;;;;;4.20;2.72;;;;;;;;;;5019615;28;20243;-70
2022/08/21 06:03:21;;;;;;;7.63;2.72;;;;;;;;;;5020414;28;20244;-70
2022/08/21 06:05:48;;;;;;;4.53;2.83;;;;;;;;;;5020073;28;20272;-70
2022/08/21 06:08:14;;;;;;;2.85;2.67;;;;;;;;;;5020029;28;20310;-70
2022/08/21 06:10:41;;;;;;;11.90;8.63;;;;;;;;;;5019906;28;20198;-70
2022/08/21 06:13:09;;;;;;;6.05;4.82;;;;;;;;;;5020438;28;20255;-70
2022/08/21 06:15:35;;;;;;;4.28;4.07;;;;;;;;;;5020241;28;20260;-70
2022/08/21 06:18:01;;;;;;;3.00;2.90;;;;;;;;;;5019979;28;20252;-70
2022/08/21 06:20:28;;;;;;;6.05;4.45;;;;;;;;;;5020042;28;20198;-70
2022/08/21 06:22:54;;;;;;;3.72;3.30;;;;;;;;;;5020101;28;20210;-70
2022/08/21 06:25:21;;;;;;;4.05;3.60;;;;;;;;;;5019902;28;20218;-70
2022/08/21 06:27:47;;;;;;;3.78;3.40;;;;;;;;;;5019761;28;20252;-70
2022/08/21 06:30:14;;;;;;;3.40;3.30;;;;;;;;;;5020034;28;20199;-70
2022/08/21 06:32:41;;;;;;;3.80;3.45;;;;;;;;;;5019853;28;20198;-70
2022/08/21 06:35:07;;;;;;;4.85;4.45;;;;;;;;;;5019832;28;20506;-70
2022/08/21 06:37:34;;;;;;;4.97;4.00;;;;;;;;;;5019612;28;20428;-70
2022/08/21 06:40:00;;;;;;;3.17;2.97;;;;;;;;;;5019753;28;20443;-70
2022/08/21 06:42:27;;;;;;;5.07;3.22;;;;;;;;;;5019984;28;20199;-70
2022/08/21 06:44:54;;;;;;;5.13;3.75;;;;;;;;;;5019714;28;20215;-70
2022/08/21 06:47:21;;;;;;;5.00;3.70;;;;;;;;;;5019530;28;20210;-70
2022/08/21 06:49:48;;;;;;;3.58;3.38;;;;;;;;;;5019512;28;20202;-70
2022/08/21 06:52:14;;;;;;;6.78;3.50;;;;;;;;;;5019440;28;20198;-70
2022/08/21 06:54:41;;;;;;;4.18;3.17;;;;;;;;;;5019333;28;20453;-71
2022/08/21 06:57:07;;;;;;;4.18;3.25;;;;;;;;;;5019636;28;20499;-71
2022/08/21 06:59:33;;;;;;;3.45;3.15;;;;;;;;;;5019648;28;20555;-71
2022/08/21 07:02:00;;;;;;;4.60;3.38;;;;;;;;;;5019682;28;20423;-70
2022/08/21 07:04:27;;;;;;;3.10;2.90;;;;;;;;;;5019379;28;20292;-70
2022/08/21 07:06:53;;;;;;;4.00;3.40;;;;;;;;;;5019207;28;20259;-70
2022/08/21 07:09:20;;;;;;;4.38;3.67;;;;;;;;;;5019646;28;20244;-70
2022/08/21 07:11:49;;;;;;;3.20;2.88;;;;;;;;;;5020877;28;20206;-70
2022/08/21 07:14:15;;;;;;;5.65;3.38;;;;;;;;;;5023022;28;20198;-70
2022/08/21 07:16:42;;;;;;;3.10;2.90;;;;;;;;;;5022666;28;20425;-70
2022/08/21 07:19:08;;;;;;;3.95;3.28;;;;;;;;;;5022823;28;20199;-71
2022/08/21 07:21:35;;;;;;;3.05;2.95;;;;;;;;;;5022764;28;20429;-71
2022/08/21 07:24:02;;;;;;;4.30;3.42;;;;;;;;;;5022937;28;20198;-71
2022/08/21 07:26:28;;;;;;;5.20;3.63;;;;;;;;;;5022522;28;20218;-71
2022/08/21 07:28:54;;;;;;;2.90;2.70;;;;;;;;;;5022753;28;20268;-70
2022/08/21 07:31:22;;;;;;;3.40;3.10;;;;;;;;;;5022651;28;20198;-70
2022/08/21 07:33:48;;;;;;;3.25;2.88;;;;;;;;;;5022540;28;20199;-70
2022/08/21 07:36:15;;;;;;;3.95;3.50;;;;;;;;;;5022305;28;20215;-70
2022/08/21 07:38:42;;;;;;;3.15;2.90;;;;;;;;;;5022999;28;20198;-70
2022/08/21 07:41:13;;;;;;;3.08;2.72;;;;;;;;;;5022607;28;20206;-71
2022/08/21 07:43:39;;;;;;;3.03;2.83;;;;;;;;;;5022404;28;20202;-70
2022/08/21 07:46:05;;;;;;;2.92;2.65;;;;;;;;;;5022240;28;20223;-71
2022/08/21 07:48:32;;;;;;;4.95;2.58;;;;;;;;;;5022138;28;20507;-71
2022/08/21 07:50:59;;;;;;;5.00;3.33;;;;;;;;;;5022465;28;20564;-72
2022/08/21 07:53:25;;;;;;;3.70;3.03;;;;;;;;;;5022222;28;20224;-71
2022/08/21 07:55:52;;;;;;;3.35;2.67;;;;;;;;;;5022464;28;20240;-71
2022/08/21 07:58:19;;;;;;;4.03;2.70;;;;;;;;;;5022012;28;20205;-71
2022/08/21 08:00:45;;;;;;;3.00;2.80;;;;;;;;;;5022221;28;20214;-71
2022/08/21 08:03:11;;;;;;;3.60;2.95;;;;;;;;;;5022142;28;20503;-69
2022/08/21 08:05:39;;;;;;;4.55;3.40;;;;;;;;;;5022085;28;20277;-71
2022/08/21 08:08:05;;;;;;;2.90;2.63;;;;;;;;;;5021839;28;20400;-71
2022/08/21 08:10:31;;;;;;;4.57;2.90;;;;;;;;;;5021987;28;20198;-71
2022/08/21 08:12:59;;;;;;;4.25;2.63;;;;;;;;;;5021974;28;20198;-70
2022/08/21 08:15:27;;;;;;;5.75;4.22;;;;;;;;;;5021905;28;20199;-69
2022/08/21 08:17:54;;;;;;;8.07;2.70;;;;;;;;;;5021904;28;20243;-65
2022/08/21 08:20:22;;;;;;;3.17;2.80;;;;;;;;;;5021894;28;20221;-65
2022/08/21 08:22:49;;;;;;;6.28;3.22;;;;;;;;;;5021378;28;20236;-65
2022/08/21 08:25:16;;;;;;;7.00;2.78;;;;;;;;;;5021538;28;20249;-64
2022/08/21 08:27:42;;;;;;;3.30;2.67;;;;;;;;;;5021606;28;20480;-66
2022/08/21 08:30:12;;;;;;;7.82;3.28;;;;;;;;;;5021421;28;20241;-66
2022/08/21 08:32:38;;;;;;;8.10;3.15;;;;;;;;;;5021282;28;20233;-64
2022/08/21 08:35:05;;;;;;;5.65;3.30;;;;;;;;;;5021293;28;20194;-62
2022/08/21 08:37:31;;;;;;;6.28;3.63;;;;;;;;;;5020955;28;20252;-62
2022/08/21 08:39:57;;;;;;;8.15;3.63;;;;;;;;;;5020919;28;20248;-62
2022/08/21 08:42:25;;;;;;;14.70;4.43;;;;;;;;;;5020961;28;20199;-63
2022/08/21 08:44:55;;;;;;;4.85;3.72;;;;;;;;;;5021085;28;20499;-61
2022/08/21 08:47:25;;;;;;;9.18;3.90;;;;;;;;;;5020821;28;20263;-62
2022/08/21 08:49:55;;;;;;;2.88;2.65;;;;;;;;;;5020799;28;20195;-61
2022/08/21 08:52:27;;;;;;;6.13;3.78;;;;;;;;;;5021007;28;20391;-62
2022/08/21 08:54:58;;;;;;;6.50;2.95;;;;;;;;;;5020799;28;20206;-63
2022/08/21 08:57:26;;;;;;;6.30;3.15;;;;;;;;;;5020364;28;20559;-62
2022/08/21 08:59:54;;;;;;;6.75;3.45;;;;;;;;;;5021071;28;20506;-62
2022/08/21 09:02:23;;;;;;;5.45;3.33;;;;;;;;;;5020673;28;20222;-62
2022/08/21 09:04:49;;;;;;;3.97;3.13;;;;;;;;;;5020481;28;20218;-63
2022/08/21 09:07:20;;;;;;;5.57;3.15;;;;;;;;;;5020472;28;20260;-61
2022/08/21 09:09:52;;;;;;;3.38;3.08;;;;;;;;;;5020546;28;20375;-62
2022/08/21 09:12:34;;;;;;;3.65;3.40;;;;;;;;;;5020833;28;20450;-63
2022/08/21 09:15:04;;;;;;;8.18;3.80;;;;;;;;;;5021031;28;20201;-62
2022/08/21 09:17:38;;;;;;;3.38;3.00;;;;;;;;;;5020742;28;20218;-64
2022/08/21 09:20:13;;;;;;;6.60;3.38;;;;;;;;;;5020762;28;20198;-63
2022/08/21 09:22:44;;;;;;;5.15;4.05;;;;;;;;;;5020303;28;20191;-62
2022/08/21 09:25:13;;;;;;;4.72;3.22;;;;;;;;;;5020281;28;20251;-62
2022/08/21 09:27:39;;;;;;;4.72;3.55;;;;;;;;;;5019876;28;20199;-62
2022/08/21 09:30:07;;;;;;;8.27;3.50;;;;;;;;;;5020015;28;20198;-61
2022/08/21 09:32:34;;;;;;;6.07;4.40;;;;;;;;;;5020163;28;20206;-62
2022/08/21 09:35:05;;;;;;;8.30;3.40;;;;;;;;;;5018719;28;20199;-63
2022/08/21 09:37:33;;;;;;;5.18;3.38;;;;;;;;;;5019967;28;20198;-65
2022/08/21 09:39:59;;;;;;;4.13;3.53;;;;;;;;;;5020142;28;20549;-67
2022/08/21 09:42:26;;;;;;;5.05;3.35;;;;;;;;;;5020071;28;20394;-64
2022/08/21 09:45:05;;;;;;;4.53;3.42;;;;;;;;;;5020062;28;20202;-62
2022/08/21 09:47:32;;;;;;;6.38;4.45;;;;;;;;;;5019686;28;20522;-62
2022/08/21 09:50:07;;;;;;;6.15;3.60;;;;;;;;;;5020310;28;20198;-62
2022/08/21 09:52:35;;;;;;;6.28;3.40;;;;;;;;;;5020530;28;20336;-64
2022/08/21 09:57:37;;;;;;;11.50;6.80;;;;;;;;;;5020231;28;20206;-66
2022/08/21 09:57:56;;;;;;;7.78;4.38;;;;;;;;;;5099519;27;20601;-60
2022/08/21 10:00:26;;;;;;;4.30;3.08;;;;;;;;;;5099946;28;20195;-62
2022/08/21 10:02:52;;;;;;;6.72;2.97;;;;;;;;;;5099977;28;20199;-61
2022/08/21 10:05:20;;;;;;;9.05;3.10;;;;;;;;;;5092334;28;20220;-61
2022/08/21 10:07:46;;;;;;;4.85;2.90;;;;;;;;;;5079365;28;20258;-61
2022/08/21 10:10:15;;;;;;;6.57;3.63;;;;;;;;;;5079088;28;20200;-61
2022/08/21 10:12:47;;;;;;;5.10;3.45;;;;;;;;;;5079561;28;20279;-61
2022/08/21 10:15:17;;;;;;;3.80;2.85;;;;;;;;;;5079592;28;20242;-65
2022/08/21 10:17:49;;;;;;;4.65;3.00;;;;;;;;;;5079027;28;20292;-64
2022/08/21 10:20:20;;;;;;;11.18;7.32;;;;;;;;;;5079293;28;20258;-64
2022/08/21 10:22:51;;;;;;;6.80;4.03;;;;;;;;;;5079100;28;20426;-63
2022/08/21 10:25:20;;;;;;;6.20;2.83;;;;;;;;;;5079374;28;20196;-63
2022/08/21 10:27:50;;;;;;;4.70;2.90;;;;;;;;;;5078845;28;20192;-61
2022/08/21 10:30:20;;;;;;;4.80;2.75;;;;;;;;;;5079028;28;20196;-61
2022/08/21 10:33:02;;;;;;;6.90;2.95;;;;;;;;;;5079005;28;20210;-62
2022/08/21 10:35:31;;;;;;;6.80;2.85;;;;;;;;;;5079269;28;20200;-62
2022/08/21 10:38:06;;;;;;;4.78;2.35;;;;;;;;;;5079013;28;20240;-63
2022/08/21 10:40:35;;;;;;;11.57;3.40;;;;;;;;;;5079099;28;20196;-64
2022/08/21 10:43:14;;;;;;;8.60;3.38;;;;;;;;;;5078781;28;20195;-63
2022/08/21 10:45:49;;;;;;;5.38;2.60;;;;;;;;;;5078621;28;20223;-63
2022/08/21 10:48:19;;;;;;;6.20;2.67;;;;;;;;;;5078578;28;20192;-63
2022/08/21 10:50:48;;;;;;;5.38;2.70;;;;;;;;;;5078717;28;20189;-62
2022/08/21 10:53:28;;;;;;;3.78;2.50;;;;;;;;;;5078618;28;20322;-64
2022/08/21 10:55:57;;;;;;;6.10;2.88;;;;;;;;;;5078261;28;20588;-62
2022/08/21 10:58:26;;;;;;;9.38;2.78;;;;;;;;;;5078110;28;20673;-62
2022/08/21 11:00:56;;;;;;;8.90;2.85;;;;;;;;;;5078489;28;20249;-63
2022/08/21 11:03:24;;;;;;;5.32;3.15;;;;;;;;;;5078188;28;20204;-63
2022/08/21 11:05:52;;;;;;;4.15;2.80;;;;;;;;;;5078196;28;20262;-62
2022/08/21 11:08:22;;;;;;;5.45;2.80;;;;;;;;;;5070017;28;20196;-65
2022/08/21 11:10:51;;;;;;;4.85;2.55;;;;;;;;;;5064704;28;20500;-63
2022/08/21 11:13:20;;;;;;;6.97;2.70;;;;;;;;;;5064746;28;20197;-63
2022/08/21 11:15:51;;;;;;;4.13;2.30;;;;;;;;;;5065020;28;20259;-62
2022/08/21 11:18:22;;;;;;;5.47;3.00;;;;;;;;;;5064853;28;20496;-63
2022/08/21 11:20:51;;;;;;;5.40;2.92;;;;;;;;;;5064756;28;20200;-63
2022/08/21 11:23:19;;;;;;;5.10;2.53;;;;;;;;;;5064471;28;20235;-63
2022/08/21 11:25:48;;;;;;;5.07;2.75;;;;;;;;;;5064625;28;20268;-62
2022/08/21 11:28:18;;;;;;;4.55;2.72;;;;;;;;;;5064461;28;20231;-63
2022/08/21 11:30:48;;;;;;;6.13;2.60;;;;;;;;;;5064619;28;20591;-63
2022/08/21 11:33:22;;;;;;;4.32;2.67;;;;;;;;;;5064483;28;20231;-63
2022/08/21 11:35:53;;;;;;;10.98;3.00;;;;;;;;;;5064270;28;20201;-62
2022/08/21 11:38:28;;;;;;;7.32;2.50;;;;;;;;;;5064409;28;20290;-62
2022/08/21 11:41:09;;;;;;;7.50;3.00;;;;;;;;;;5064433;28;20218;-62
2022/08/21 11:43:38;;;;;;;2.75;2.33;;;;;;;;;;5064265;28;20235;-64
2022/08/21 11:46:11;;;;;;;4.38;2.72;;;;;;;;;;5063791;28;20231;-63
2022/08/21 11:48:41;;;;;;;5.50;2.80;;;;;;;;;;5064163;28;20321;-61
2022/08/21 11:51:12;;;;;;;6.07;2.53;;;;;;;;;;5064023;28;20196;-60
2022/08/21 11:53:40;;;;;;;5.05;2.83;;;;;;;;;;5064065;28;20224;-62
2022/08/21 11:56:11;;;;;;;5.72;2.40;;;;;;;;;;5063735;28;20212;-62
2022/08/21 11:58:39;;;;;;;7.53;3.53;;;;;;;;;;5063858;28;20197;-62
2022/08/21 12:01:07;;;;;;;5.88;2.63;;;;;;;;;;5064134;28;20242;-61
2022/08/21 12:03:35;;;;;;;9.00;4.05;;;;;;;;;;5064311;28;20488;-61
2022/08/21 12:06:02;;;;;;;10.65;7.15;;;;;;;;;;5063614;28;20239;-64
2022/08/21 12:08:31;;;;;;;5.60;2.90;;;;;;;;;;5063954;28;20201;-64
2022/08/21 12:11:03;;;;;;;7.15;2.70;;;;;;;;;;5063661;28;20247;-63
2022/08/21 12:13:30;;;;;;;7.15;2.70;;;;;;;;;;5063977;28;20208;-63
2022/08/21 12:16:05;;;;;;;4.13;3.00;;;;;;;;;;5063656;28;20192;-64
2022/08/21 12:18:32;;;;;;;5.80;2.60;;;;;;;;;;5063452;28;20224;-64
2022/08/21 12:21:00;;;;;;;4.47;2.53;;;;;;;;;;5062444;28;20197;-64
2022/08/21 12:23:28;;;;;;;4.30;2.50;;;;;;;;;;5063402;28;20362;-64
2022/08/21 12:26:03;;;;;;;6.55;2.70;;;;;;;;;;5063619;28;20197;-64
2022/08/21 12:28:30;;;;;;;6.00;2.67;;;;;;;;;;5063370;28;20197;-63
2022/08/21 12:30:57;;;;;;;9.57;3.17;;;;;;;;;;5063371;28;20284;-63
2022/08/21 12:33:25;;;;;;;3.63;2.03;;;;;;;;;;5063284;28;20469;-64
2022/08/21 12:35:53;;;;;;;4.90;2.72;;;;;;;;;;5063144;28;20327;-64
2022/08/21 12:38:20;;;;;;;3.80;2.30;;;;;;;;;;5063042;28;20263;-64
2022/08/21 12:40:49;;;;;;;4.25;2.40;;;;;;;;;;5063194;28;20196;-64
2022/08/21 12:43:20;;;;;;;5.38;2.42;;;;;;;;;;5063429;28;20196;-63
2022/08/21 12:45:48;;;;;;;5.82;2.40;;;;;;;;;;5063032;28;20197;-63
2022/08/21 12:48:16;;;;;;;3.00;2.05;;;;;;;;;;5062797;28;20574;-64
2022/08/21 12:50:45;;;;;;;4.13;2.00;;;;;;;;;;5062881;28;20417;-63
2022/08/21 12:53:16;;;;;;;2.15;2.03;;;;;;;;;;5063194;28;20211;-65
2022/08/21 12:55:43;;;;;;;4.45;2.50;;;;;;;;;;5063017;28;20197;-64
2022/08/21 12:58:19;;;;;;;1.95;1.80;;;;;;;;;;5063050;28;20411;-64
2022/08/21 13:00:49;;;;;;;2.80;2.30;;;;;;;;;;5063708;28;20369;-62
2022/08/21 13:03:16;;;;;;;3.97;1.90;;;;;;;;;;5062918;28;20224;-63
2022/08/21 13:05:42;;;;;;;1.88;1.70;;;;;;;;;;5062917;28;20541;-65
2022/08/21 13:08:11;;;;;;;3.65;2.38;;;;;;;;;;5062404;28;20193;-63
2022/08/21 13:10:38;;;;;;;1.80;1.70;;;;;;;;;;5062644;28;20196;-63
2022/08/21 13:13:06;;;;;;;1.70;1.45;;;;;;;;;;5062527;28;20196;-63
2022/08/21 13:15:34;;;;;;;1.70;1.60;;;;;;;;;;5062387;28;20201;-63
2022/08/21 13:18:02;;;;;;;2.13;1.40;;;;;;;;;;5062396;28;20255;-63
2022/08/21 13:20:30;;;;;;;1.83;1.67;;;;;;;;;;5062557;28;20197;-65
2022/08/21 13:22:57;;;;;;;2.40;1.50;;;;;;;;;;5062546;28;20196;-66
2022/08/21 13:25:26;;;;;;;2.08;1.88;;;;;;;;;;5062405;28;20435;-64
2022/08/21 13:28:00;;;;;;;2.45;1.60;;;;;;;;;;5062085;28;20193;-63
2022/08/21 13:30:27;;;;;;;1.70;1.45;;;;;;;;;;5062275;28;20204;-64
2022/08/21 13:32:56;;;;;;;3.75;1.42;;;;;;;;;;5063041;28;20200;-65
2022/08/21 13:35:25;;;;;;;1.88;1.63;;;;;;;;;;5063146;28;20208;-70
2022/08/21 13:37:52;;;;;;;2.00;1.48;;;;;;;;;;5062103;28;20216;-73
2022/08/21 13:40:21;;;;;;;4.82;2.17;;;;;;;;;;5062375;28;20197;-74
2022/08/21 13:42:48;;;;;;;3.13;1.80;;;;;;;;;;5062194;28;20201;-74
2022/08/21 13:45:16;;;;;;;2.30;2.10;;;;;;;;;;5062412;28;20203;-73
2022/08/21 13:47:43;;;;;;;2.25;1.90;;;;;;;;;;5062044;28;20196;-72
2022/08/21 13:50:12;;;;;;;2.40;2.20;;;;;;;;;;5062169;28;20258;-73
2022/08/21 13:52:47;;;;;;;1.90;1.73;;;;;;;;;;5062111;28;20204;-73
2022/08/21 13:55:14;;;;;;;3.08;1.77;;;;;;;;;;5061882;28;20196;-73
2022/08/21 13:57:40;;;;;;;4.85;1.90;;;;;;;;;;5061560;28;20590;-73
2022/08/21 14:00:13;;;;;;;3.35;1.77;;;;;;;;;;5062121;28;20204;-73
2022/08/21 14:02:41;;;;;;;1.85;1.73;;;;;;;;;;5062071;28;20202;-73
2022/08/21 14:05:07;;;;;;;4.90;1.65;;;;;;;;;;5061905;28;20589;-73
2022/08/21 14:07:36;;;;;;;2.03;1.80;;;;;;;;;;5061702;28;20295;-72
2022/08/21 14:10:03;;;;;;;1.83;1.65;;;;;;;;;;5062025;28;20197;-72
2022/08/21 14:12:32;;;;;;;1.90;1.67;;;;;;;;;;5061896;28;20196;-73
2022/08/21 14:14:58;;;;;;;1.90;1.80;;;;;;;;;;5061697;28;20197;-72
2022/08/21 14:17:28;;;;;;;3.05;2.03;;;;;;;;;;5061423;28;20213;-74
2022/08/21 14:19:55;;;;;;;2.90;1.88;;;;;;;;;;5061799;28;20219;-73
2022/08/21 14:22:29;;;;;;;6.63;1.60;;;;;;;;;;5062173;28;20200;-73
2022/08/21 14:25:01;;;;;;;2.20;2.00;;;;;;;;;;5062004;28;20242;-73
2022/08/21 14:27:29;;;;;;;4.80;1.80;;;;;;;;;;5061562;28;20227;-72
2022/08/21 14:29:58;;;;;;;1.83;1.73;;;;;;;;;;5061804;28;20251;-72
2022/08/21 14:32:29;;;;;;;3.08;1.70;;;;;;;;;;5061473;28;20197;-72
2022/08/21 14:34:55;;;;;;;3.30;1.80;;;;;;;;;;5061534;28;20197;-72
2022/08/21 14:37:22;;;;;;;1.95;1.85;;;;;;;;;;5061485;28;20536;-72
2022/08/21 14:39:48;;;;;;;1.85;1.70;;;;;;;;;;5061962;28;20198;-72
2022/08/21 14:42:16;;;;;;;3.47;1.90;;;;;;;;;;5061711;28;20246;-73
2022/08/21 14:44:42;;;;;;;1.90;1.80;;;;;;;;;;5065277;28;20197;-72
2022/08/21 14:47:09;;;;;;;4.30;2.10;;;;;;;;;;5065180;28;20197;-72